x

Yucatan Basin - 120 Nm Ese Of Cozumel, Mx (42056) Wave Buoy

5:50 - Thu 2nd Oct 2014 All times are CDT. -5 hours from GMT.

  • Sig Wave height 3.3ft
  • Swell Direction
  • Peak Period 6s
  • Average Period 4s
  • Wind
    20mph, 22mph gusts
  • Sea Temp 86°f
  • Luft Temp 85°f
  • Sea Pressure 1013mb
  •  Yucatan Basin - 120 Nm Ese Of Cozumel, Mx
  •  Yucatan Basin - 120 Nm Ese Of Cozumel, Mx

More Historic Weather Station data

Upgrade to MSW Pro to gain access to the past 30 days of data for over 8000 Wavebouys and Weather Stations around the globe.

Join Pro

Comparision Forecast

View Surf forecast
   
Do 10/02 5:50 3.5ft 6s 4s 20 22 mph 1013mb 86f 85f
4:50 3.5ft 8s 5s 18 20 mph 1012.3mb 86f 85f
3:50 3ft 7s 4s 16 18 mph 1012.3mb 86f 85f
2:50 3ft 8s 5s 16 18 mph 1012.5mb 86f 85f
1:50 3ft 8s 5s 13 18 mph 1012.8mb 86f 85f
12:50 2.5ft 6s 4s 16
mph
1013.1mb 86f 85f
Mi 10/01 11:50 2.5ft 7s 4s 16
mph
1013.7mb 86f 85f
9:50 3ft 8s 4s 13 16 mph 1013.9mb 86f 85f
8:50 2.5ft 8s 4s 13 16 mph 1013.2mb 86f 85f
7:50 2.5ft 7s 4s 13 18 mph 1012.2mb 86f 85f
6:50 2.5ft 7s 4s 13 16 mph 1011.5mb 86f 85f
5:50 2.5ft 6s 5s 11 13 mph 1011mb 86f 85f
4:50 2.5ft 6s 5s 9 11 mph 1010.7mb 86f 85f
3:50 2.5ft 7s 5s 11 13 mph 1010.7mb 86f 85f
2:50 2.5ft 7s 4s 11 13 mph 1011.3mb 86f 85f
1:50 2.5ft 8s 4s 11
mph
1011.8mb 86f 85f
12:50 2ft 7s 4s 11 13 mph 1012.5mb 86f 85f
11:50 2ft 6s 4s 11 13 mph 1013.2mb 85f 85f
10:50 2ft 7s 4s 11 13 mph 1013.3mb 85f 85f
9:50 2.5ft 6s 4s 13
mph
1013.2mb 85f 85f
8:50 2.5ft 7s 4s 13 16 mph 1012.9mb 85f 84f
7:50 2.5ft 7s 4s 9 13 mph 1012.4mb 85f 84f
6:50 2.5ft 7s 4s 11 13 mph 1011.6mb 85f 84f
5:50 2.5ft 6s 4s 11 13 mph 1011.3mb 85f 84f
4:50 2ft 7s 4s 13 16 mph 1010.7mb 85f 84f
3:50 1.6ft 7s 4s 13 16 mph 1010.3mb 85f 84f
2:50 1.6ft 6s 4s 11 13 mph 1010.4mb 85f 84f
1:50 1.3ft 6s 4s 11 16 mph 1010.7mb 86f 84f
12:50 1.3ft 7s 4s 13 16 mph 1011.2mb 86f 84f
Di 09/30 11:50 1.3ft 6s 4s 11
mph
1011.6mb 86f 84f
10:50 1.3ft 6s 4s 11 13 mph 1011.5mb 86f 84f
9:50 1.3ft 5s 4s 9 11 mph 1011.7mb 86f 85f
8:50 1.3ft 7s 4s 11 13 mph 1011.5mb 86f 85f
7:50 1.3ft 5s 4s 9 11 mph 1010.8mb 86f 85f
6:50 1.3ft 4s 4s 9
mph
1010.1mb 87f 85f
5:50 1.3ft 4s 4s 9
mph
1009.6mb 87f 85f
4:50 1.3ft 4s 4s 7 9 mph 1009.3mb 87f 85f
3:50 1.3ft 4s 4s 7 9 mph 1009.6mb 87f 85f
2:50 1.3ft 4s 4s 7 9 mph 1010mb 87f 85f
1:50 1.3ft 4s 4s 7 9 mph 1010.6mb 87f 85f
12:50 1.3ft 4s 4s 9 11 mph 1011.3mb 87f 85f
11:50 1.3ft 4s 4s 7
mph
1012.1mb 87f 85f
10:50 1ft 5s 3s 7 9 mph 1012.2mb 86f 85f
9:50 1ft 5s 4s 9
mph
1012.3mb 86f 85f
8:50 1ft 5s 4s 11 13 mph 1011.8mb 86f 85f
7:50 1ft 5s 4s 9 11 mph 1011.3mb 86f 84f
6:50 1ft 4s 4s 9 11 mph 1010.9mb 86f 84f
5:50 1ft 5s 4s 9 11 mph 1010.4mb 86f 84f
4:50 1ft 6s 4s 9 11 mph 1010mb 86f 84f
3:50 1ft 5s 4s 9 11 mph 1010mb 86f 84f
2:50 1ft 5s 4s 11 13 mph 1010.2mb 86f 84f
1:50 1.3ft 5s 4s 11 13 mph 1010.4mb 86f 84f
12:50 1ft 5s 4s 11 13 mph 1010.9mb 86f 84f
Mo 09/29 11:50 1ft 5s 4s 9 11 mph 1011.2mb 86f 84f
10:50 1.3ft 5s 4s 11
mph
1011.2mb 86f 84f
9:50 1.3ft 5s 4s 9 11 mph 1011.3mb 86f 84f
8:50 1.3ft 6s 4s 9 11 mph 1010.9mb 86f 84f
7:50 1.3ft 5s 4s 9 11 mph 1010.3mb 86f 84f
6:50 1.3ft 5s 4s 4 9 mph 1010mb 86f 83f
5:50 1.3ft 6s 4s 7 9 mph 1009.6mb 87f 85f
4:50 1.3ft 5s 4s 9 11 mph 1009.3mb 87f 85f
3:50 1.3ft 5s 4s 9
mph
1009.3mb 87f 85f
2:50 1.3ft 5s 4s 9
mph
1009.6mb 87f 85f
1:50 1.3ft 6s 4s 9 11 mph 1010.1mb 87f 84f
12:50 1.3ft 5s 4s 7 9 mph 1011mb 87f 84f
11:50 1.3ft 6s 4s 9 11 mph 1011.6mb 87f 84f
10:50 1.3ft 6s 4s 7 9 mph 1011.7mb 86f 84f
9:50 1.6ft 6s 4s 7 9 mph 1011.6mb 86f 84f
8:50 1.3ft 6s 4s 7
mph
1011.4mb 85f 84f
7:50 1.3ft 6s 4s 4 7 mph 1011.4mb 85f 84f
6:50 1.3ft 6s 4s 4 7 mph 1010.9mb 84f 83f
5:50 1.3ft 5s 4s 7 9 mph 1010.4mb 84f 84f
4:50 1.3ft 6s 4s 7 9 mph 1009.9mb 84f 84f
3:50 1.6ft 5s 4s 9 11 mph 1009.7mb 84f 84f
2:50 1.6ft 6s 4s 7 9 mph 1010.1mb 84f 83f
1:50 1.6ft 5s 4s 7
mph
1010.8mb 84f 83f
12:50 1.6ft 5s 4s 9 11 mph 1011.3mb 84f 83f
So 09/28 11:50 2ft 5s 4s 11
mph
1011.6mb 84f 84f
9:50 2ft 6s 4s 11
mph
1011.7mb 85f 84f
8:50 1.6ft 5s 4s 11
mph
1011.2mb 85f 84f
7:50 2ft 6s 4s 9 11 mph 1010.5mb 85f 85f
6:50 1.6ft 6s 4s 11 13 mph 1009.9mb 85f 84f
5:50 2ft 6s 4s 11 13 mph 1009.7mb 85f 85f
4:50 1.6ft 6s 4s 9 11 mph 1009.5mb 85f 85f
3:50 2ft 6s 5s 11 13 mph 1009.7mb 85f 84f
2:50 2ft 5s 4s 11 13 mph 1009.9mb 85f 84f
1:50 2ft 6s 4s 11 13 mph 1010.7mb 85f 84f
12:50 2.5ft 6s 5s 11 13 mph 1011.2mb 85f 84f